sensor_id;sensor_type;location;lat;lon;timestamp;P1;durP1;ratioP1;P2;durP2;ratioP2
47239;SDS011;32978;53.586;10.052;2023-02-01T00:00:54;22.65;;;8.95;;
47239;SDS011;32978;53.586;10.052;2023-02-01T00:05:56;30.08;;;9.98;;
47239;SDS011;32978;53.586;10.052;2023-02-01T00:10:57;29.10;;;9.68;;
47239;SDS011;32978;53.586;10.052;2023-02-01T00:16:11;27.08;;;10.90;;
47239;SDS011;32978;53.586;10.052;2023-02-01T00:21:18;24.50;;;11.55;;
47239;SDS011;32978;53.586;10.052;2023-02-01T00:26:22;30.20;;;11.57;;
47239;SDS011;32978;53.586;10.052;2023-02-01T00:36:36;30.45;;;11.30;;
47239;SDS011;32978;53.586;10.052;2023-02-01T00:41:33;26.20;;;9.55;;
47239;SDS011;32978;53.586;10.052;2023-02-01T00:46:30;25.60;;;10.02;;
47239;SDS011;32978;53.586;10.052;2023-02-01T00:51:27;31.73;;;8.20;;
47239;SDS011;32978;53.586;10.052;2023-02-01T00:56:24;31.25;;;10.82;;
47239;SDS011;32978;53.586;10.052;2023-02-01T01:01:24;24.95;;;10.63;;
47239;SDS011;32978;53.586;10.052;2023-02-01T01:06:23;35.42;;;11.65;;
47239;SDS011;32978;53.586;10.052;2023-02-01T01:11:28;23.30;;;9.57;;
47239;SDS011;32978;53.586;10.052;2023-02-01T01:16:26;28.70;;;10.73;;
47239;SDS011;32978;53.586;10.052;2023-02-01T01:21:25;47.83;;;12.63;;
47239;SDS011;32978;53.586;10.052;2023-02-01T01:26:23;36.08;;;12.70;;
47239;SDS011;32978;53.586;10.052;2023-02-01T01:31:21;30.38;;;11.20;;
47239;SDS011;32978;53.586;10.052;2023-02-01T01:36:18;32.08;;;12.05;;
47239;SDS011;32978;53.586;10.052;2023-02-01T01:41:16;40.90;;;13.13;;
47239;SDS011;32978;53.586;10.052;2023-02-01T01:46:18;39.58;;;12.50;;
47239;SDS011;32978;53.586;10.052;2023-02-01T01:51:17;43.75;;;12.15;;
47239;SDS011;32978;53.586;10.052;2023-02-01T01:56:18;30.63;;;11.88;;
47239;SDS011;32978;53.586;10.052;2023-02-01T02:01:14;38.00;;;11.77;;
47239;SDS011;32978;53.586;10.052;2023-02-01T02:06:14;34.45;;;12.02;;
47239;SDS011;32978;53.586;10.052;2023-02-01T02:11:16;49.03;;;14.15;;
47239;SDS011;32978;53.586;10.052;2023-02-01T02:26:54;35.15;;;12.52;;
47239;SDS011;32978;53.586;10.052;2023-02-01T02:37:15;31.38;;;11.45;;
47239;SDS011;32978;53.586;10.052;2023-02-01T02:58:54;33.08;;;15.48;;
47239;SDS011;32978;53.586;10.052;2023-02-01T03:04:09;35.20;;;15.70;;
47239;SDS011;32978;53.586;10.052;2023-02-01T03:09:14;35.80;;;16.30;;
47239;SDS011;32978;53.586;10.052;2023-02-01T03:14:16;38.95;;;17.20;;
47239;SDS011;32978;53.586;10.052;2023-02-01T03:24:27;34.63;;;16.40;;
47239;SDS011;32978;53.586;10.052;2023-02-01T03:29:30;28.80;;;15.32;;
47239;SDS011;32978;53.586;10.052;2023-02-01T03:34:33;37.90;;;16.73;;
47239;SDS011;32978;53.586;10.052;2023-02-01T03:39:49;31.13;;;13.95;;
47239;SDS011;32978;53.586;10.052;2023-02-01T03:44:50;26.73;;;15.63;;
47239;SDS011;32978;53.586;10.052;2023-02-01T03:49:55;21.00;;;14.60;;
47239;SDS011;32978;53.586;10.052;2023-02-01T03:54:55;17.83;;;14.82;;
47239;SDS011;32978;53.586;10.052;2023-02-01T03:59:53;23.83;;;16.13;;
47239;SDS011;32978;53.586;10.052;2023-02-01T04:04:49;26.48;;;16.17;;
47239;SDS011;32978;53.586;10.052;2023-02-01T04:09:45;27.25;;;17.13;;
47239;SDS011;32978;53.586;10.052;2023-02-01T04:14:42;22.33;;;15.93;;
47239;SDS011;32978;53.586;10.052;2023-02-01T04:19:38;26.88;;;14.95;;
47239;SDS011;32978;53.586;10.052;2023-02-01T04:24:35;26.55;;;16.15;;
47239;SDS011;32978;53.586;10.052;2023-02-01T04:29:32;29.50;;;15.57;;
47239;SDS011;32978;53.586;10.052;2023-02-01T04:34:29;22.02;;;15.75;;
47239;SDS011;32978;53.586;10.052;2023-02-01T04:39:26;28.27;;;16.67;;
47239;SDS011;32978;53.586;10.052;2023-02-01T04:44:22;24.10;;;15.52;;
47239;SDS011;32978;53.586;10.052;2023-02-01T04:49:19;22.42;;;14.57;;
47239;SDS011;32978;53.586;10.052;2023-02-01T04:54:17;20.70;;;15.02;;
47239;SDS011;32978;53.586;10.052;2023-02-01T04:59:13;19.52;;;13.98;;
47239;SDS011;32978;53.586;10.052;2023-02-01T05:04:11;24.92;;;16.63;;
47239;SDS011;32978;53.586;10.052;2023-02-01T05:09:07;18.92;;;14.35;;
47239;SDS011;32978;53.586;10.052;2023-02-01T05:14:04;18.13;;;14.73;;
47239;SDS011;32978;53.586;10.052;2023-02-01T05:19:00;13.98;;;13.02;;
47239;SDS011;32978;53.586;10.052;2023-02-01T05:23:57;16.73;;;12.93;;
47239;SDS011;32978;53.586;10.052;2023-02-01T05:29:31;14.60;;;13.50;;
47239;SDS011;32978;53.586;10.052;2023-02-01T05:34:28;15.38;;;14.32;;
47239;SDS011;32978;53.586;10.052;2023-02-01T05:39:24;14.57;;;13.40;;
47239;SDS011;32978;53.586;10.052;2023-02-01T05:44:21;13.52;;;12.52;;
47239;SDS011;32978;53.586;10.052;2023-02-01T05:49:17;15.43;;;14.30;;
47239;SDS011;32978;53.586;10.052;2023-02-01T05:54:14;14.57;;;13.45;;
47239;SDS011;32978;53.586;10.052;2023-02-01T05:59:11;13.35;;;12.48;;
47239;SDS011;32978;53.586;10.052;2023-02-01T06:04:08;13.77;;;12.88;;
47239;SDS011;32978;53.586;10.052;2023-02-01T06:09:04;15.45;;;14.55;;
47239;SDS011;32978;53.586;10.052;2023-02-01T06:14:01;15.90;;;14.80;;
47239;SDS011;32978;53.586;10.052;2023-02-01T06:18:58;15.38;;;14.30;;
47239;SDS011;32978;53.586;10.052;2023-02-01T06:23:54;16.40;;;15.15;;
47239;SDS011;32978;53.586;10.052;2023-02-01T06:28:51;16.63;;;15.43;;
47239;SDS011;32978;53.586;10.052;2023-02-01T06:33:48;17.38;;;15.85;;
47239;SDS011;32978;53.586;10.052;2023-02-01T06:38:45;18.00;;;16.42;;
47239;SDS011;32978;53.586;10.052;2023-02-01T06:43:42;20.15;;;16.88;;
47239;SDS011;32978;53.586;10.052;2023-02-01T06:48:39;20.05;;;17.88;;
47239;SDS011;32978;53.586;10.052;2023-02-01T06:53:36;18.35;;;16.27;;
47239;SDS011;32978;53.586;10.052;2023-02-01T06:58:33;28.52;;;17.75;;
47239;SDS011;32978;53.586;10.052;2023-02-01T07:03:29;27.90;;;19.02;;
47239;SDS011;32978;53.586;10.052;2023-02-01T07:08:27;24.60;;;17.63;;
47239;SDS011;32978;53.586;10.052;2023-02-01T07:13:23;23.85;;;19.17;;
47239;SDS011;32978;53.586;10.052;2023-02-01T07:18:20;19.50;;;17.45;;
47239;SDS011;32978;53.586;10.052;2023-02-01T07:23:16;22.40;;;17.63;;
47239;SDS011;32978;53.586;10.052;2023-02-01T07:28:13;29.67;;;16.83;;
47239;SDS011;32978;53.586;10.052;2023-02-01T07:33:10;23.95;;;17.17;;
47239;SDS011;32978;53.586;10.052;2023-02-01T07:38:06;35.47;;;19.30;;
47239;SDS011;32978;53.586;10.052;2023-02-01T07:43:02;29.20;;;20.15;;
47239;SDS011;32978;53.586;10.052;2023-02-01T07:48:02;26.30;;;16.67;;
47239;SDS011;32978;53.586;10.052;2023-02-01T07:52:59;28.73;;;19.25;;
47239;SDS011;32978;53.586;10.052;2023-02-01T07:57:57;28.27;;;17.83;;
47239;SDS011;32978;53.586;10.052;2023-02-01T08:02:54;30.52;;;18.15;;
47239;SDS011;32978;53.586;10.052;2023-02-01T08:07:53;36.10;;;20.05;;
47239;SDS011;32978;53.586;10.052;2023-02-01T08:12:50;41.90;;;19.50;;
47239;SDS011;32978;53.586;10.052;2023-02-01T08:17:48;32.03;;;18.10;;
47239;SDS011;32978;53.586;10.052;2023-02-01T08:22:45;41.05;;;21.50;;
47239;SDS011;32978;53.586;10.052;2023-02-01T08:27:42;40.38;;;21.02;;
47239;SDS011;32978;53.586;10.052;2023-02-01T08:32:38;31.30;;;13.75;;
47239;SDS011;32978;53.586;10.052;2023-02-01T08:37:35;29.60;;;14.52;;
47239;SDS011;32978;53.586;10.052;2023-02-01T08:42:32;30.30;;;14.57;;
47239;SDS011;32978;53.586;10.052;2023-02-01T08:47:47;22.63;;;8.20;;
47239;SDS011;32978;53.586;10.052;2023-02-01T08:52:43;10.35;;;9.15;;
47239;SDS011;32978;53.586;10.052;2023-02-01T08:57:40;21.00;;;14.40;;
47239;SDS011;32978;53.586;10.052;2023-02-01T09:02:37;24.92;;;18.08;;
47239;SDS011;32978;53.586;10.052;2023-02-01T09:07:34;26.30;;;18.25;;
47239;SDS011;32978;53.586;10.052;2023-02-01T09:12:31;27.23;;;15.45;;
47239;SDS011;32978;53.586;10.052;2023-02-01T09:17:30;33.83;;;18.02;;
47239;SDS011;32978;53.586;10.052;2023-02-01T09:22:26;30.90;;;18.80;;
47239;SDS011;32978;53.586;10.052;2023-02-01T09:27:23;31.88;;;16.35;;
47239;SDS011;32978;53.586;10.052;2023-02-01T09:32:20;32.63;;;15.48;;
47239;SDS011;32978;53.586;10.052;2023-02-01T09:37:17;43.00;;;15.40;;
47239;SDS011;32978;53.586;10.052;2023-02-01T09:47:54;37.10;;;13.85;;
47239;SDS011;32978;53.586;10.052;2023-02-01T09:52:55;31.42;;;14.30;;
47239;SDS011;32978;53.586;10.052;2023-02-01T09:58:01;27.30;;;13.25;;
47239;SDS011;32978;53.586;10.052;2023-02-01T10:03:01;37.65;;;15.05;;
47239;SDS011;32978;53.586;10.052;2023-02-01T10:08:04;32.88;;;11.48;;
47239;SDS011;32978;53.586;10.052;2023-02-01T10:19:06;21.80;;;12.00;;
47239;SDS011;32978;53.586;10.052;2023-02-01T10:24:16;25.58;;;11.45;;
47239;SDS011;32978;53.586;10.052;2023-02-01T10:29:20;25.65;;;12.85;;
47239;SDS011;32978;53.586;10.052;2023-02-01T10:34:21;25.65;;;14.48;;
47239;SDS011;32978;53.586;10.052;2023-02-01T10:39:22;28.00;;;14.93;;
47239;SDS011;32978;53.586;10.052;2023-02-01T10:44:20;32.15;;;18.33;;
47239;SDS011;32978;53.586;10.052;2023-02-01T10:49:32;20.60;;;15.70;;
47239;SDS011;32978;53.586;10.052;2023-02-01T10:54:35;36.72;;;19.38;;
47239;SDS011;32978;53.586;10.052;2023-02-01T10:59:36;34.97;;;20.33;;
47239;SDS011;32978;53.586;10.052;2023-02-01T11:04:34;40.50;;;23.35;;
47239;SDS011;32978;53.586;10.052;2023-02-01T11:09:31;33.70;;;20.23;;
47239;SDS011;32978;53.586;10.052;2023-02-01T11:14:37;32.10;;;20.88;;
47239;SDS011;32978;53.586;10.052;2023-02-01T11:19:35;30.35;;;19.55;;
47239;SDS011;32978;53.586;10.052;2023-02-01T11:24:33;31.48;;;16.70;;
47239;SDS011;32978;53.586;10.052;2023-02-01T11:29:38;38.78;;;19.80;;
47239;SDS011;32978;53.586;10.052;2023-02-01T11:34:38;32.50;;;19.80;;
47239;SDS011;32978;53.586;10.052;2023-02-01T11:39:39;39.60;;;16.70;;
47239;SDS011;32978;53.586;10.052;2023-02-01T11:44:36;36.45;;;17.13;;
47239;SDS011;32978;53.586;10.052;2023-02-01T11:49:34;26.95;;;18.50;;
47239;SDS011;32978;53.586;10.052;2023-02-01T11:54:54;26.48;;;17.13;;
47239;SDS011;32978;53.586;10.052;2023-02-01T12:05:24;20.80;;;14.38;;
47239;SDS011;32978;53.586;10.052;2023-02-01T12:10:32;16.70;;;12.57;;
47239;SDS011;32978;53.586;10.052;2023-02-01T12:20:52;22.08;;;19.83;;
47239;SDS011;32978;53.586;10.052;2023-02-01T12:36:36;20.67;;;18.48;;
47239;SDS011;32978;53.586;10.052;2023-02-01T12:51:58;18.60;;;17.02;;
47239;SDS011;32978;53.586;10.052;2023-02-01T12:57:04;19.73;;;18.33;;
47239;SDS011;32978;53.586;10.052;2023-02-01T13:07:37;17.92;;;16.83;;
47239;SDS011;32978;53.586;10.052;2023-02-01T13:12:48;19.15;;;17.95;;
47239;SDS011;32978;53.586;10.052;2023-02-01T13:18:06;19.50;;;18.30;;
47239;SDS011;32978;53.586;10.052;2023-02-01T13:23:20;19.40;;;18.20;;
47239;SDS011;32978;53.586;10.052;2023-02-01T13:28:27;11.60;;;10.57;;
47239;SDS011;32978;53.586;10.052;2023-02-01T13:33:38;9.23;;;8.52;;
47239;SDS011;32978;53.586;10.052;2023-02-01T13:39:02;8.68;;;7.97;;
47239;SDS011;32978;53.586;10.052;2023-02-01T13:44:23;11.38;;;10.50;;
47239;SDS011;32978;53.586;10.052;2023-02-01T13:49:30;12.77;;;11.88;;
47239;SDS011;32978;53.586;10.052;2023-02-01T13:54:33;10.57;;;9.73;;
47239;SDS011;32978;53.586;10.052;2023-02-01T14:04:45;16.42;;;15.00;;
47239;SDS011;32978;53.586;10.052;2023-02-01T14:09:45;21.50;;;19.85;;
47239;SDS011;32978;53.586;10.052;2023-02-01T14:14:42;21.58;;;19.40;;
47239;SDS011;32978;53.586;10.052;2023-02-01T14:19:38;21.20;;;19.27;;
47239;SDS011;32978;53.586;10.052;2023-02-01T14:24:35;19.42;;;17.80;;
47239;SDS011;32978;53.586;10.052;2023-02-01T14:29:34;22.95;;;20.55;;
47239;SDS011;32978;53.586;10.052;2023-02-01T14:44:41;17.10;;;15.13;;
47239;SDS011;32978;53.586;10.052;2023-02-01T14:54:53;15.60;;;14.15;;
47239;SDS011;32978;53.586;10.052;2023-02-01T14:59:53;15.13;;;13.75;;
47239;SDS011;32978;53.586;10.052;2023-02-01T15:04:56;15.90;;;14.45;;
47239;SDS011;32978;53.586;10.052;2023-02-01T15:09:53;14.65;;;13.23;;
47239;SDS011;32978;53.586;10.052;2023-02-01T15:15:03;17.35;;;15.55;;
47239;SDS011;32978;53.586;10.052;2023-02-01T15:25:20;26.20;;;18.75;;
47239;SDS011;32978;53.586;10.052;2023-02-01T15:30:21;20.27;;;17.98;;
47239;SDS011;32978;53.586;10.052;2023-02-01T15:40:51;18.90;;;17.20;;
47239;SDS011;32978;53.586;10.052;2023-02-01T15:46:01;18.85;;;16.38;;
47239;SDS011;32978;53.586;10.052;2023-02-01T15:51:02;24.92;;;16.65;;
47239;SDS011;32978;53.586;10.052;2023-02-01T15:56:00;20.08;;;16.65;;
47239;SDS011;32978;53.586;10.052;2023-02-01T16:01:00;23.98;;;17.30;;
47239;SDS011;32978;53.586;10.052;2023-02-01T16:06:01;18.83;;;14.32;;
47239;SDS011;32978;53.586;10.052;2023-02-01T16:11:20;25.45;;;16.60;;
47239;SDS011;32978;53.586;10.052;2023-02-01T16:16:21;30.02;;;17.73;;
47239;SDS011;32978;53.586;10.052;2023-02-01T16:21:17;28.05;;;19.75;;
47239;SDS011;32978;53.586;10.052;2023-02-01T16:26:14;25.58;;;20.00;;
47239;SDS011;32978;53.586;10.052;2023-02-01T16:31:14;34.90;;;21.10;;
47239;SDS011;32978;53.586;10.052;2023-02-01T16:36:17;35.35;;;21.45;;
47239;SDS011;32978;53.586;10.052;2023-02-01T16:41:15;38.20;;;19.05;;
47239;SDS011;32978;53.586;10.052;2023-02-01T16:46:15;26.80;;;18.65;;
47239;SDS011;32978;53.586;10.052;2023-02-01T16:51:15;26.73;;;18.77;;
47239;SDS011;32978;53.586;10.052;2023-02-01T16:56:17;34.10;;;21.40;;
47239;SDS011;32978;53.586;10.052;2023-02-01T17:01:18;25.73;;;20.92;;
47239;SDS011;32978;53.586;10.052;2023-02-01T17:06:16;31.90;;;18.98;;
47239;SDS011;32978;53.586;10.052;2023-02-01T17:11:15;27.23;;;16.15;;
47239;SDS011;32978;53.586;10.052;2023-02-01T17:21:14;33.00;;;16.52;;
47239;SDS011;32978;53.586;10.052;2023-02-01T17:26:10;50.25;;;17.45;;
47239;SDS011;32978;53.586;10.052;2023-02-01T17:31:08;42.63;;;14.02;;
47239;SDS011;32978;53.586;10.052;2023-02-01T17:36:13;30.55;;;13.02;;
47239;SDS011;32978;53.586;10.052;2023-02-01T17:41:11;34.60;;;13.27;;
47239;SDS011;32978;53.586;10.052;2023-02-01T17:46:11;33.60;;;14.30;;
47239;SDS011;32978;53.586;10.052;2023-02-01T17:51:14;28.02;;;11.80;;
47239;SDS011;32978;53.586;10.052;2023-02-01T17:56:14;38.50;;;11.68;;
47239;SDS011;32978;53.586;10.052;2023-02-01T18:01:19;28.77;;;10.95;;
47239;SDS011;32978;53.586;10.052;2023-02-01T18:06:20;21.48;;;8.27;;
47239;SDS011;32978;53.586;10.052;2023-02-01T18:11:18;24.92;;;8.68;;
47239;SDS011;32978;53.586;10.052;2023-02-01T18:21:19;20.23;;;7.43;;
47239;SDS011;32978;53.586;10.052;2023-02-01T18:26:17;31.42;;;7.90;;
47239;SDS011;32978;53.586;10.052;2023-02-01T18:31:27;20.95;;;7.95;;
47239;SDS011;32978;53.586;10.052;2023-02-01T18:41:25;29.58;;;9.52;;
47239;SDS011;32978;53.586;10.052;2023-02-01T18:46:21;25.10;;;10.43;;
47239;SDS011;32978;53.586;10.052;2023-02-01T18:51:18;23.08;;;9.93;;
47239;SDS011;32978;53.586;10.052;2023-02-01T18:56:15;29.45;;;9.43;;
47239;SDS011;32978;53.586;10.052;2023-02-01T19:01:14;31.20;;;8.93;;
47239;SDS011;32978;53.586;10.052;2023-02-01T19:06:14;24.10;;;8.95;;
47239;SDS011;32978;53.586;10.052;2023-02-01T19:11:10;28.10;;;8.77;;
47239;SDS011;32978;53.586;10.052;2023-02-01T19:16:11;33.72;;;8.70;;
47239;SDS011;32978;53.586;10.052;2023-02-01T19:21:09;34.00;;;8.02;;
47239;SDS011;32978;53.586;10.052;2023-02-01T19:26:14;29.08;;;7.95;;
47239;SDS011;32978;53.586;10.052;2023-02-01T19:31:12;32.67;;;8.43;;
47239;SDS011;32978;53.586;10.052;2023-02-01T19:36:09;30.23;;;9.00;;
47239;SDS011;32978;53.586;10.052;2023-02-01T19:41:06;22.95;;;11.98;;
47239;SDS011;32978;53.586;10.052;2023-02-01T19:46:05;19.58;;;10.95;;
47239;SDS011;32978;53.586;10.052;2023-02-01T19:51:01;28.65;;;12.90;;
47239;SDS011;32978;53.586;10.052;2023-02-01T19:55:59;17.15;;;13.93;;
47239;SDS011;32978;53.586;10.052;2023-02-01T20:00:57;24.23;;;14.60;;
47239;SDS011;32978;53.586;10.052;2023-02-01T20:05:56;25.23;;;13.98;;
47239;SDS011;32978;53.586;10.052;2023-02-01T20:10:54;17.20;;;15.50;;
47239;SDS011;32978;53.586;10.052;2023-02-01T20:15:57;23.08;;;15.43;;
47239;SDS011;32978;53.586;10.052;2023-02-01T20:20:55;29.70;;;16.67;;
47239;SDS011;32978;53.586;10.052;2023-02-01T20:25:59;41.30;;;18.73;;
47239;SDS011;32978;53.586;10.052;2023-02-01T20:31:01;33.55;;;18.55;;
47239;SDS011;32978;53.586;10.052;2023-02-01T20:35:58;38.53;;;19.25;;
47239;SDS011;32978;53.586;10.052;2023-02-01T20:41:05;35.15;;;17.88;;
47239;SDS011;32978;53.586;10.052;2023-02-01T20:46:02;32.20;;;17.50;;
47239;SDS011;32978;53.586;10.052;2023-02-01T20:50:59;38.00;;;20.13;;
47239;SDS011;32978;53.586;10.052;2023-02-01T20:55:56;34.35;;;18.65;;
47239;SDS011;32978;53.586;10.052;2023-02-01T21:00:53;47.75;;;22.00;;
47239;SDS011;32978;53.586;10.052;2023-02-01T21:05:51;34.42;;;16.40;;
47239;SDS011;32978;53.586;10.052;2023-02-01T21:11:06;36.58;;;13.88;;
47239;SDS011;32978;53.586;10.052;2023-02-01T21:16:06;27.65;;;12.43;;
47239;SDS011;32978;53.586;10.052;2023-02-01T21:26:05;31.58;;;7.93;;
47239;SDS011;32978;53.586;10.052;2023-02-01T21:31:01;28.77;;;9.15;;
47239;SDS011;32978;53.586;10.052;2023-02-01T21:35:58;28.42;;;9.68;;
47239;SDS011;32978;53.586;10.052;2023-02-01T21:40:54;30.67;;;9.85;;
47239;SDS011;32978;53.586;10.052;2023-02-01T21:46:09;29.13;;;9.23;;
47239;SDS011;32978;53.586;10.052;2023-02-01T21:51:05;29.08;;;9.13;;
47239;SDS011;32978;53.586;10.052;2023-02-01T21:56:04;35.85;;;10.88;;
47239;SDS011;32978;53.586;10.052;2023-02-01T22:01:01;29.40;;;10.43;;
47239;SDS011;32978;53.586;10.052;2023-02-01T22:05:57;35.55;;;12.98;;
47239;SDS011;32978;53.586;10.052;2023-02-01T22:10:54;27.83;;;12.48;;
47239;SDS011;32978;53.586;10.052;2023-02-01T22:15:50;32.92;;;11.98;;
47239;SDS011;32978;53.586;10.052;2023-02-01T22:20:47;39.13;;;11.82;;
47239;SDS011;32978;53.586;10.052;2023-02-01T22:25:43;33.40;;;12.00;;
47239;SDS011;32978;53.586;10.052;2023-02-01T22:30:40;34.28;;;10.40;;
47239;SDS011;32978;53.586;10.052;2023-02-01T22:35:36;30.60;;;14.20;;
47239;SDS011;32978;53.586;10.052;2023-02-01T22:40:33;41.63;;;14.18;;
47239;SDS011;32978;53.586;10.052;2023-02-01T22:45:29;28.80;;;15.00;;
47239;SDS011;32978;53.586;10.052;2023-02-01T22:50:26;34.80;;;11.30;;
47239;SDS011;32978;53.586;10.052;2023-02-01T22:55:22;25.17;;;12.38;;
47239;SDS011;32978;53.586;10.052;2023-02-01T23:00:19;39.15;;;15.55;;
47239;SDS011;32978;53.586;10.052;2023-02-01T23:05:19;27.10;;;14.43;;
47239;SDS011;32978;53.586;10.052;2023-02-01T23:10:17;57.20;;;14.43;;
47239;SDS011;32978;53.586;10.052;2023-02-01T23:15:15;33.13;;;14.40;;
47239;SDS011;32978;53.586;10.052;2023-02-01T23:20:14;32.50;;;15.57;;
47239;SDS011;32978;53.586;10.052;2023-02-01T23:25:12;29.45;;;11.60;;
47239;SDS011;32978;53.586;10.052;2023-02-01T23:30:10;34.72;;;15.57;;
47239;SDS011;32978;53.586;10.052;2023-02-01T23:35:07;28.00;;;13.00;;
47239;SDS011;32978;53.586;10.052;2023-02-01T23:40:04;30.30;;;13.50;;
47239;SDS011;32978;53.586;10.052;2023-02-01T23:45:01;33.65;;;12.32;;
47239;SDS011;32978;53.586;10.052;2023-02-01T23:49:58;31.13;;;13.88;;
47239;SDS011;32978;53.586;10.052;2023-02-01T23:54:55;30.65;;;15.68;;
47239;SDS011;32978;53.586;10.052;2023-02-01T23:59:51;31.80;;;15.68;;
